Time;durP1;ratioP1;P1;durP2;ratioP2;P2;SDS_P1;SDS_P2;PMS_P1;PMS_P2;Temp;Humidity;BMP_temperature;BMP_pressure;BME280_temperature;BME280_humidity;BME280_pressure;Samples;Min_cycle;Max_cycle;Signal;HPM_P1;HPM_P2
2023/07/27 00:00:46;;;;;;;;;2.00;2.00;;;;;22.34;54.71;100577.53;5114525;27;45120;-67
2023/07/27 00:03:12;;;;;;;;;1.00;1.00;;;;;21.94;54.52;100499.56;5125940;27;45274;-65
2023/07/27 00:05:37;;;;;;;;;1.00;1.00;;;;;22.21;54.77;100554.25;5113793;27;45929;-68
2023/07/27 00:08:02;;;;;;;;;1.33;1.00;;;;;22.28;54.91;100566.75;5118141;27;45574;-64
2023/07/27 00:10:28;;;;;;;;;2.00;2.00;;;;;22.25;55.25;100561.38;5099410;27;45590;-66
2023/07/27 00:12:54;;;;;;;;;1.00;1.00;;;;;22.21;55.41;100552.41;5113353;27;45749;-66
2023/07/27 00:15:19;;;;;;;;;1.33;1.33;;;;;22.24;55.52;100567.75;5115578;27;45586;-64
2023/07/27 00:17:45;;;;;;;;;1.00;1.00;;;;;22.25;55.88;100567.72;5109973;27;45310;-68
2023/07/27 00:20:12;;;;;;;;;3.00;2.00;;;;;22.21;55.97;100560.56;5102702;27;45472;-65
2023/07/27 00:22:37;;;;;;;;;1.00;1.00;;;;;22.18;56.59;100557.94;5120648;27;45077;-65
2023/07/27 00:25:03;;;;;;;;;0.00;0.00;;;;;22.14;56.40;100555.31;5121676;27;44903;-65
2023/07/27 00:27:28;;;;;;;;;4.00;1.00;;;;;22.15;56.66;100554.41;5119954;27;45306;-65
2023/07/27 00:29:54;;;;;;;;;1.67;1.67;;;;;22.13;57.14;100543.53;5127154;27;45067;-70
2023/07/27 00:32:19;;;;;;;;;1.67;1.00;;;;;22.11;57.22;100537.25;5098680;27;45307;-73
2023/07/27 00:34:44;;;;;;;;;1.00;1.00;;;;;22.05;57.52;100532.84;5105599;27;46266;-67
2023/07/27 00:37:12;;;;;;;;;2.00;2.00;;;;;22.01;57.81;100528.41;5109965;27;46104;-69
2023/07/27 00:39:37;;;;;;;;;2.00;2.00;;;;;21.85;58.31;100505.25;5112276;27;45106;-66
2023/07/27 00:42:03;;;;;;;;;3.00;2.00;;;;;22.03;58.21;100532.00;5113655;27;45322;-68
2023/07/27 00:44:28;;;;;;;;;5.00;1.33;;;;;22.04;58.51;100527.44;5108971;27;45187;-65
2023/07/27 00:46:54;;;;;;;;;1.00;1.00;;;;;22.00;58.71;100531.19;5113394;27;45793;-66
2023/07/27 00:49:19;;;;;;;;;1.67;1.00;;;;;22.02;58.83;100534.75;5117821;27;45202;-66
2023/07/27 00:51:46;;;;;;;;;0.00;0.00;;;;;22.01;58.91;100536.59;5114361;27;45455;-65
2023/07/27 00:54:12;;;;;;;;;1.00;1.00;;;;;21.99;58.97;100521.22;5116549;27;45270;-66
2023/07/27 00:56:38;;;;;;;;;1.00;1.00;;;;;21.99;59.21;100524.84;5120415;27;45254;-69
2023/07/27 00:59:05;;;;;;;;;1.33;1.00;;;;;21.98;59.22;100523.06;5115910;27;45158;-71
2023/07/27 01:01:30;;;;;;;;;0.00;0.00;;;;;21.98;59.26;100516.72;5120342;27;45272;-67
2023/07/27 01:03:56;;;;;;;;;1.00;1.00;;;;;21.98;59.39;100519.44;5120378;27;45126;-66
2023/07/27 01:06:23;;;;;;;;;1.00;1.00;;;;;21.97;59.43;100517.66;5105107;27;46466;-65
2023/07/27 01:08:50;;;;;;;;;1.67;1.67;;;;;21.85;59.44;100495.25;5115293;27;45241;-65
2023/07/27 01:11:31;;;;;;;;;2.67;1.00;;;;;21.97;59.40;100512.22;5113140;27;45179;-65
2023/07/27 01:14:13;;;;;;;;;1.00;1.00;;;;;21.98;59.25;100512.16;5105949;27;45387;-65
2023/07/27 01:16:44;;;;;;;;;1.00;0.00;;;;;21.98;59.36;100504.00;5115427;27;45319;-66
2023/07/27 01:19:48;;;;;;;;;2.33;2.00;;;;;21.96;59.29;100494.09;5093489;27;45258;-65
2023/07/27 01:22:19;;;;;;;;;1.00;1.00;;;;;21.98;59.35;100501.28;5117284;27;45234;-66
2023/07/27 01:25:05;;;;;;;;;1.00;1.00;;;;;21.97;59.33;100487.72;5106521;27;45439;-66
2023/07/27 01:27:44;;;;;;;;;3.00;1.00;;;;;21.96;59.21;100499.53;5115543;27;47001;-65
2023/07/27 01:30:29;;;;;;;;;1.00;1.00;;;;;21.94;59.19;100499.56;5118245;27;45125;-68
2023/07/27 01:33:04;;;;;;;;;1.33;1.33;;;;;21.81;59.21;100470.88;5097115;27;58593;-65
2023/07/27 01:35:37;;;;;;;;;3.67;1.67;;;;;21.84;59.38;100471.69;5118658;27;45371;-70
2023/07/27 01:38:03;;;;;;;;;2.00;1.67;;;;;21.93;59.26;100491.44;5114429;27;46547;-67
2023/07/27 01:40:30;;;;;;;;;1.00;1.00;;;;;21.95;59.13;100490.47;5115061;27;45369;-66
2023/07/27 01:42:56;;;;;;;;;1.00;1.00;;;;;21.94;59.25;100485.06;5110933;27;45342;-70
2023/07/27 01:45:23;;;;;;;;;1.00;1.00;;;;;21.93;59.15;100477.84;5116433;27;45054;-69
2023/07/27 01:47:50;;;;;;;;;1.00;1.00;;;;;21.88;59.37;100477.97;5121366;27;45409;-69
2023/07/27 01:50:16;;;;;;;;;2.00;2.00;;;;;21.89;59.11;100466.16;5109120;27;45181;-65
2023/07/27 01:52:44;;;;;;;;;1.00;1.00;;;;;21.86;59.07;100468.94;5114233;27;45063;-65
2023/07/27 01:55:12;;;;;;;;;3.00;1.00;;;;;21.85;59.19;100476.22;5114895;27;45129;-67
2023/07/27 01:57:38;;;;;;;;;1.00;1.00;;;;;21.85;59.22;100484.38;5121251;27;45505;-68
2023/07/27 02:00:05;;;;;;;;;1.00;1.00;;;;;21.83;59.17;100477.19;5119480;27;44988;-67
2023/07/27 02:02:30;;;;;;;;;1.00;1.00;;;;;21.73;59.23;100454.78;5115032;27;45250;-70
2023/07/27 02:04:57;;;;;;;;;3.00;2.00;;;;;21.78;59.25;100465.50;5112062;27;45232;-68
2023/07/27 02:07:23;;;;;;;;;1.33;1.33;;;;;21.78;59.25;100466.44;5111516;27;45534;-71
2023/07/27 02:09:48;;;;;;;;;0.00;0.00;;;;;21.71;59.11;100453.88;5122586;27;44836;-69
2023/07/27 02:12:23;;;;;;;;;1.00;1.00;;;;;21.71;59.39;100467.47;5113377;27;47691;-68
2023/07/27 02:15:01;;;;;;;;;0.33;0.33;;;;;21.57;59.65;100453.34;5112897;27;45325;-67
2023/07/27 02:17:39;;;;;;;;;1.67;1.00;;;;;21.60;59.66;100464.16;5107620;27;45951;-67
2023/07/27 02:20:13;;;;;;;;;0.67;0.67;;;;;21.57;60.01;100461.50;5119322;27;45260;-69
2023/07/27 02:22:40;;;;;;;;;1.00;1.00;;;;;21.54;59.95;100452.47;5117014;27;45114;-66
2023/07/27 02:25:07;;;;;;;;;1.00;1.00;;;;;21.50;60.15;100445.34;5112673;27;45313;-69
2023/07/27 02:27:32;;;;;;;;;0.67;0.67;;;;;21.48;60.13;100447.19;5120050;27;45161;-70
2023/07/27 02:29:58;;;;;;;;;0.67;0.67;;;;;21.41;60.12;100428.31;5124089;27;45663;-68
2023/07/27 02:32:23;;;;;;;;;1.00;0.33;;;;;21.43;60.34;100442.75;5097866;27;50769;-69
2023/07/27 02:34:48;;;;;;;;;1.00;1.00;;;;;21.40;60.60;100453.69;5112728;27;45410;-66
2023/07/27 02:37:14;;;;;;;;;1.00;1.00;;;;;21.41;60.84;100447.34;5112644;27;45311;-67
2023/07/27 02:39:39;;;;;;;;;0.67;0.67;;;;;21.31;61.49;100446.66;5117579;27;46040;-69
2023/07/27 02:42:05;;;;;;;;;0.67;0.67;;;;;21.37;61.76;100457.38;5112063;27;46347;-65
2023/07/27 02:44:30;;;;;;;;;0.33;0.33;;;;;21.28;62.22;100433.13;5118957;27;45338;-66
2023/07/27 02:46:55;;;;;;;;;0.00;0.00;;;;;21.25;62.48;100420.53;5109550;27;50107;-66
2023/07/27 02:49:21;;;;;;;;;2.67;1.33;;;;;21.37;62.43;100435.66;5113673;27;45173;-67
2023/07/27 02:51:46;;;;;;;;;2.33;1.00;;;;;21.38;62.91;100433.81;5121048;27;45205;-68
2023/07/27 02:54:11;;;;;;;;;0.67;0.67;;;;;21.35;62.66;100438.41;5132867;27;44955;-66
2023/07/27 02:56:37;;;;;;;;;1.00;1.00;;;;;21.32;62.62;100429.44;5117163;27;45445;-68
2023/07/27 02:59:02;;;;;;;;;0.33;0.00;;;;;21.35;62.66;100434.81;5114740;27;45073;-70
2023/07/27 03:01:27;;;;;;;;;0.00;0.00;;;;;21.33;62.61;100442.97;5115215;27;45253;-66
2023/07/27 03:03:53;;;;;;;;;2.00;0.67;;;;;20.92;62.65;100375.97;5122197;27;45585;-66
2023/07/27 03:06:18;;;;;;;;;2.00;2.00;;;;;21.26;62.47;100432.28;5102369;27;47054;-68
2023/07/27 03:08:43;;;;;;;;;0.00;0.00;;;;;21.21;62.40;100443.25;5116837;27;49268;-68
2023/07/27 03:11:09;;;;;;;;;0.00;0.00;;;;;21.20;62.24;100449.63;5124313;27;45218;-67
2023/07/27 03:13:34;;;;;;;;;2.00;1.00;;;;;21.14;62.26;100445.22;5109282;27;45283;-68
2023/07/27 03:16:04;;;;;;;;;1.00;1.00;;;;;21.16;62.24;100446.06;5115027;27;45946;-67
2023/07/27 03:18:29;;;;;;;;;1.00;1.00;;;;;21.17;62.12;100452.41;5124177;27;45209;-67
2023/07/27 03:20:55;;;;;;;;;1.00;1.00;;;;;20.97;61.87;100423.84;5114214;27;45047;-65
2023/07/27 03:23:20;;;;;;;;;0.00;0.00;;;;;21.02;62.11;100426.47;5125542;27;45139;-65
2023/07/27 03:25:45;;;;;;;;;0.00;0.00;;;;;20.93;62.14;100418.53;5113277;27;45865;-67
2023/07/27 03:28:11;;;;;;;;;0.00;0.00;;;;;21.06;62.08;100443.59;5126377;27;45408;-67
2023/07/27 03:30:40;;;;;;;;;1.00;1.00;;;;;21.01;62.12;100437.38;5119993;27;44984;-67
2023/07/27 03:33:06;;;;;;;;;1.00;1.00;;;;;21.04;62.41;100450.91;5126606;27;45090;-67
2023/07/27 03:35:33;;;;;;;;;2.00;2.00;;;;;21.03;62.16;100444.53;5118901;27;45967;-70
2023/07/27 03:37:58;;;;;;;;;0.00;0.00;;;;;21.07;62.60;100461.66;5118762;27;44925;-66
2023/07/27 03:40:23;;;;;;;;;0.00;0.00;;;;;21.07;62.18;100454.44;5124693;27;45499;-71
2023/07/27 03:42:49;;;;;;;;;1.00;1.00;;;;;21.04;62.58;100443.63;5123685;27;45180;-65
2023/07/27 03:45:15;;;;;;;;;0.67;0.67;;;;;20.95;62.44;100432.94;5125831;27;45267;-67
2023/07/27 03:47:44;;;;;;;;;2.00;1.00;;;;;21.04;62.31;100442.75;5124739;27;45162;-71
2023/07/27 03:50:10;;;;;;;;;0.33;0.33;;;;;21.09;62.20;100446.25;5121637;27;45336;-64
2023/07/27 03:52:36;;;;;;;;;2.00;0.00;;;;;21.05;62.38;100447.22;5126762;27;45144;-66
2023/07/27 03:55:02;;;;;;;;;0.33;0.33;;;;;21.07;62.32;100451.72;5114050;27;45759;-66
2023/07/27 03:57:27;;;;;;;;;2.67;1.00;;;;;21.02;61.86;100436.44;5120471;27;45130;-67
2023/07/27 03:59:57;;;;;;;;;1.00;1.00;;;;;21.10;62.19;100454.38;5122086;27;45151;-67
2023/07/27 04:02:26;;;;;;;;;1.00;1.00;;;;;21.09;62.11;100441.69;5122093;27;45012;-66
2023/07/27 04:04:52;;;;;;;;;0.00;0.00;;;;;21.07;62.45;100442.66;5108028;27;46102;-68
2023/07/27 04:07:18;;;;;;;;;2.00;0.00;;;;;20.99;62.25;100434.69;5114362;27;45090;-69
2023/07/27 04:09:44;;;;;;;;;0.00;0.00;;;;;21.08;62.24;100453.47;5122720;27;45102;-70
2023/07/27 04:12:09;;;;;;;;;0.00;0.00;;;;;21.02;62.51;100445.50;5116107;27;44919;-68
2023/07/27 04:14:35;;;;;;;;;1.33;1.00;;;;;21.08;62.32;100452.59;5125183;27;45170;-70
2023/07/27 04:17:00;;;;;;;;;1.00;1.00;;;;;21.10;62.44;100457.09;5130410;27;45492;-66
2023/07/27 04:19:25;;;;;;;;;0.67;0.67;;;;;20.99;62.64;100434.69;5113370;27;45304;-67
2023/07/27 04:21:51;;;;;;;;;0.00;0.00;;;;;21.02;62.68;100448.22;5130515;27;45385;-70
2023/07/27 04:24:16;;;;;;;;;1.00;1.00;;;;;21.03;62.81;100451.81;5121456;27;48839;-68
2023/07/27 04:26:41;;;;;;;;;0.33;0.33;;;;;21.02;62.79;100445.50;5116502;27;45005;-68
2023/07/27 04:29:07;;;;;;;;;0.00;0.00;;;;;20.97;62.70;100433.84;5124764;27;45106;-67
2023/07/27 04:31:32;;;;;;;;;1.00;1.00;;;;;21.01;63.22;100438.25;5124209;27;45344;-68
2023/07/27 04:33:57;;;;;;;;;0.33;0.33;;;;;21.02;63.21;100441.84;5127550;27;60399;-67
2023/07/27 04:36:23;;;;;;;;;1.00;1.00;;;;;20.99;62.74;100432.84;5113896;27;54100;-65
2023/07/27 04:38:48;;;;;;;;;0.67;0.67;;;;;20.92;63.11;100414.91;5122960;27;45367;-68
2023/07/27 04:41:13;;;;;;;;;3.00;1.00;;;;;21.05;63.01;100441.78;5116785;27;45934;-66
2023/07/27 04:43:39;;;;;;;;;0.00;0.00;;;;;21.01;63.13;100432.81;5127538;27;45167;-66
2023/07/27 04:46:04;;;;;;;;;0.33;0.33;;;;;21.06;63.39;100441.75;5114220;27;45084;-66
2023/07/27 04:48:29;;;;;;;;;2.00;1.00;;;;;21.06;63.48;100443.59;5116676;27;45404;-66
2023/07/27 04:50:55;;;;;;;;;1.00;1.00;;;;;21.04;63.26;100438.19;5111771;27;45317;-65
2023/07/27 04:53:20;;;;;;;;;0.67;0.00;;;;;20.90;63.50;100424.00;5114478;27;45271;-65
2023/07/27 04:55:46;;;;;;;;;1.00;0.00;;;;;20.90;63.34;100426.72;5115416;27;45083;-66
2023/07/27 04:58:11;;;;;;;;;0.67;0.67;;;;;21.03;63.42;100444.53;5115748;27;45186;-66
2023/07/27 05:00:36;;;;;;;;;0.67;0.00;;;;;21.05;63.30;100447.22;5120107;27;45007;-65
2023/07/27 05:03:02;;;;;;;;;0.00;0.00;;;;;21.06;63.29;100439.06;5101043;27;46599;-65
2023/07/27 05:05:27;;;;;;;;;0.00;0.00;;;;;21.06;63.13;100435.44;5107414;27;45530;-65
2023/07/27 05:07:53;;;;;;;;;2.67;1.00;;;;;21.05;63.45;100442.72;5099562;27;45237;-65
2023/07/27 05:10:18;;;;;;;;;0.33;0.33;;;;;20.96;63.26;100421.19;5114236;27;45158;-65
2023/07/27 05:12:44;;;;;;;;;2.00;1.00;;;;;21.06;63.27;100436.34;5130959;27;45783;-66
2023/07/27 05:15:09;;;;;;;;;0.67;0.67;;;;;21.06;63.40;100439.06;5106521;27;45367;-66
2023/07/27 05:17:34;;;;;;;;;1.00;1.00;;;;;21.07;63.52;100445.38;5102418;27;45673;-66
2023/07/27 05:20:01;;;;;;;;;2.00;1.00;;;;;21.01;63.54;100427.41;5111263;27;45403;-66
2023/07/27 05:22:27;;;;;;;;;0.00;0.00;;;;;21.03;63.42;100430.09;5076692;27;45985;-67
2023/07/27 05:24:52;;;;;;;;;0.00;0.00;;;;;21.07;63.30;100445.38;5106510;27;45941;-64
2023/07/27 05:27:17;;;;;;;;;1.00;1.00;;;;;21.00;63.46;100433.75;5097713;27;45657;-65
2023/07/27 05:29:43;;;;;;;;;1.00;0.00;;;;;21.06;63.65;100435.44;5099467;27;45384;-66
2023/07/27 05:32:08;;;;;;;;;0.00;0.00;;;;;20.98;63.65;100428.34;5103887;27;46038;-65
2023/07/27 05:34:34;;;;;;;;;1.00;1.00;;;;;21.05;63.49;100436.38;5100693;27;45421;-66
2023/07/27 05:37:00;;;;;;;;;3.00;0.00;;;;;21.08;63.63;100441.72;5080693;27;45499;-64
2023/07/27 05:39:25;;;;;;;;;1.33;1.00;;;;;21.07;63.85;100439.94;5105911;27;45541;-66
2023/07/27 05:41:51;;;;;;;;;1.00;1.00;;;;;21.09;63.77;100449.84;5104374;27;45423;-66
2023/07/27 05:44:16;;;;;;;;;0.00;0.00;;;;;21.06;63.53;100436.34;5098199;27;45381;-65
2023/07/27 05:46:41;;;;;;;;;2.00;1.00;;;;;21.04;63.58;100435.47;5098818;27;45638;-65
2023/07/27 05:49:07;;;;;;;;;1.33;1.00;;;;;21.05;63.61;100428.22;5099427;27;45513;-66
2023/07/27 05:51:32;;;;;;;;;4.67;4.67;;;;;21.12;63.84;100440.75;5105273;27;46013;-66
2023/07/27 05:53:58;;;;;;;;;1.00;1.00;;;;;21.11;63.68;100441.66;5099093;27;57389;-66
2023/07/27 05:56:23;;;;;;;;;2.33;1.00;;;;;21.12;63.73;100443.47;5100134;27;45484;-69
2023/07/27 05:58:48;;;;;;;;;1.67;1.67;;;;;21.09;63.49;100439.00;5107716;27;45478;-67
2023/07/27 06:01:16;;;;;;;;;1.33;0.67;;;;;21.10;63.48;100440.78;5097595;27;45473;-65
2023/07/27 06:03:41;;;;;;;;;1.33;1.33;;;;;21.05;63.74;100430.94;5104291;27;45391;-67
2023/07/27 06:06:07;;;;;;;;;1.50;1.50;;;;;21.11;63.60;100442.56;5103170;27;45492;-67
2023/07/27 06:08:33;;;;;;;;;2.33;2.33;;;;;21.16;63.67;100428.88;5099655;27;45462;-67
2023/07/27 06:11:04;;;;;;;;;2.00;1.33;;;;;21.14;63.30;100422.59;5101971;27;46080;-69
2023/07/27 06:13:30;;;;;;;;;1.67;1.67;;;;;21.18;63.22;100424.28;5096247;27;45674;-67
2023/07/27 06:15:55;;;;;;;;;1.33;1.33;;;;;21.18;63.15;100421.56;5102681;27;45345;-66
2023/07/27 06:18:20;;;;;;;;;2.00;2.00;;;;;21.07;63.28;100405.53;5096912;27;45477;-67
2023/07/27 06:20:46;;;;;;;;;1.33;1.33;;;;;21.20;62.87;100418.81;5096134;27;46248;-67
2023/07/27 06:23:11;;;;;;;;;1.00;1.00;;;;;21.08;62.79;100396.44;5093507;27;45473;-69
2023/07/27 06:25:41;;;;;;;;;2.00;2.00;;;;;21.23;62.83;100424.19;5098143;27;45310;-65
2023/07/27 06:28:07;;;;;;;;;2.67;2.67;;;;;21.26;62.83;100429.56;5094730;27;45456;-66
2023/07/27 06:30:36;;;;;;;;;3.33;1.00;;;;;21.25;62.39;100416.91;5097765;27;45316;-67
2023/07/27 06:33:01;;;;;;;;;1.00;1.00;;;;;21.29;62.01;100419.50;5079993;27;45744;-66
2023/07/27 06:35:27;;;;;;;;;1.00;1.00;;;;;21.35;62.06;100421.22;5100842;27;45412;-69
2023/07/27 06:37:52;;;;;;;;;1.67;1.67;;;;;21.34;61.79;100422.13;5077766;27;45423;-66
2023/07/27 06:40:18;;;;;;;;;5.00;1.33;;;;;21.35;61.86;100438.41;5095771;27;45430;-64
2023/07/27 06:42:44;;;;;;;;;4.33;1.33;;;;;21.34;61.41;100435.72;5075758;27;45608;-66
2023/07/27 06:45:10;;;;;;;;;3.00;3.00;;;;;21.33;61.39;100440.28;5092802;27;45575;-68
2023/07/27 06:47:36;;;;;;;;;1.33;1.00;;;;;21.35;61.41;100459.25;5097441;27;45507;-67
2023/07/27 06:50:02;;;;;;;;;4.00;3.00;;;;;21.39;61.22;100452.81;5099135;27;45397;-70
2023/07/27 06:52:28;;;;;;;;;3.00;2.67;;;;;21.41;61.03;100439.19;5105101;27;45080;-65
2023/07/27 06:54:54;;;;;;;;;3.67;3.67;;;;;21.37;60.53;100418.47;5096593;27;45388;-64
2023/07/27 06:57:20;;;;;;;;;2.00;2.00;;;;;21.48;60.59;100430.91;5075953;27;45349;-65
2023/07/27 06:59:45;;;;;;;;;3.33;2.00;;;;;21.47;60.66;100426.38;5097144;27;45525;-65
2023/07/27 07:02:10;;;;;;;;;2.00;2.00;;;;;21.62;60.06;100438.69;5093279;27;45471;-65
2023/07/27 07:04:36;;;;;;;;;2.33;1.67;;;;;21.63;60.14;100428.72;5079126;27;45397;-66
2023/07/27 07:07:01;;;;;;;;;1.00;1.00;;;;;21.68;60.63;100444.00;5087756;27;45481;-67
2023/07/27 07:09:26;;;;;;;;;2.00;2.00;;;;;21.61;60.62;100436.03;5097369;27;45475;-67
2023/07/27 07:11:52;;;;;;;;;3.33;3.00;;;;;21.67;60.87;100453.06;5093911;27;45565;-65
2023/07/27 07:14:17;;;;;;;;;2.33;2.00;;;;;21.69;60.62;100444.88;5086869;27;45286;-65
2023/07/27 07:16:43;;;;;;;;;2.00;2.00;;;;;21.62;60.71;100437.81;5093650;27;45416;-66
2023/07/27 07:19:08;;;;;;;;;2.67;2.00;;;;;21.63;60.36;100429.63;5093782;27;45463;-67
2023/07/27 07:21:33;;;;;;;;;3.67;3.67;;;;;21.65;60.58;100435.91;5101429;27;45384;-66
2023/07/27 07:23:58;;;;;;;;;3.67;3.33;;;;;21.56;60.04;100432.53;5109647;27;45416;-66
2023/07/27 07:26:24;;;;;;;;;3.00;2.00;;;;;21.54;59.68;100435.28;5093225;27;45538;-65
2023/07/27 07:28:49;;;;;;;;;2.00;2.00;;;;;21.57;59.51;100445.19;5097460;27;45526;-66
2023/07/27 07:31:15;;;;;;;;;2.00;2.00;;;;;21.52;59.12;100429.88;5092863;27;45409;-68
2023/07/27 07:33:40;;;;;;;;;4.00;4.00;;;;;21.57;57.99;100439.75;5097599;27;45337;-66
2023/07/27 07:36:05;;;;;;;;;1.67;1.00;;;;;21.50;56.83;100431.75;5090221;27;45223;-69
2023/07/27 07:38:31;;;;;;;;;3.33;3.00;;;;;21.14;56.07;100371.84;5097025;27;45541;-68
2023/07/27 07:40:57;;;;;;;;;2.00;2.00;;;;;21.52;55.79;100443.47;5097993;27;45488;-72
2023/07/27 07:43:22;;;;;;;;;3.00;1.00;;;;;21.46;55.32;100438.13;5105570;27;45582;-67
2023/07/27 07:45:47;;;;;;;;;1.67;1.67;;;;;21.50;55.25;100444.44;5088437;27;45382;-66
2023/07/27 07:48:13;;;;;;;;;2.67;1.33;;;;;21.40;54.96;100437.38;5096944;27;46405;-65
2023/07/27 07:50:38;;;;;;;;;5.00;3.00;;;;;21.53;54.79;100456.13;5097312;27;45288;-66
2023/07/27 07:53:07;;;;;;;;;6.00;6.00;;;;;21.67;54.85;100457.63;5101317;27;45546;-66
2023/07/27 07:55:36;;;;;;;;;3.00;3.00;;;;;21.69;54.53;100456.66;5078411;27;45467;-66
2023/07/27 07:58:02;;;;;;;;;2.00;2.00;;;;;21.66;54.33;100451.31;5077737;27;48578;-65
2023/07/27 08:00:28;;;;;;;;;2.33;1.00;;;;;21.79;54.46;100467.31;5096627;27;45572;-66
2023/07/27 08:02:54;;;;;;;;;3.67;2.00;;;;;21.59;54.02;100414.31;5096270;27;45378;-65
2023/07/27 08:05:19;;;;;;;;;3.67;2.00;;;;;21.93;54.08;100465.16;5096480;27;45603;-65
2023/07/27 08:07:44;;;;;;;;;2.33;1.00;;;;;21.66;53.87;100405.09;5103082;27;45483;-67
2023/07/27 08:10:10;;;;;;;;;3.00;2.00;;;;;21.97;53.81;100455.09;5096256;27;45393;-66
2023/07/27 08:12:36;;;;;;;;;1.00;1.00;;;;;21.92;53.92;100452.47;5096629;27;45712;-66
2023/07/27 08:15:01;;;;;;;;;1.67;1.67;;;;;21.83;54.28;100441.84;5109317;27;45533;-65
2023/07/27 08:17:30;;;;;;;;;3.00;1.00;;;;;21.86;54.03;100429.06;5088996;27;48021;-67
2023/07/27 08:19:56;;;;;;;;;1.00;1.00;;;;;21.90;53.73;100424.44;5095992;27;45621;-65
2023/07/27 08:22:21;;;;;;;;;2.33;2.00;;;;;22.00;53.91;100438.69;5096134;27;45315;-67
2023/07/27 08:24:47;;;;;;;;;2.00;2.00;;;;;22.09;53.88;100443.88;5097608;27;45935;-65
2023/07/27 08:27:13;;;;;;;;;3.33;1.00;;;;;22.15;53.60;100432.84;5099481;27;45538;-66
2023/07/27 08:29:39;;;;;;;;;2.00;2.00;;;;;22.24;53.26;100435.31;5098853;27;45348;-66
2023/07/27 08:32:04;;;;;;;;;2.33;2.00;;;;;22.34;53.12;100427.84;5076879;27;45448;-64
2023/07/27 08:34:30;;;;;;;;;1.00;1.00;;;;;22.29;52.72;100415.28;5096349;27;45241;-64
2023/07/27 08:36:56;;;;;;;;;2.67;2.00;;;;;22.47;52.81;100430.19;5097542;27;46590;-67
2023/07/27 08:39:21;;;;;;;;;4.67;2.33;;;;;22.57;52.39;100429.00;5090593;27;45521;-65
2023/07/27 08:41:47;;;;;;;;;3.00;2.67;;;;;22.63;52.14;100439.72;5102028;27;45374;-66
2023/07/27 08:44:16;;;;;;;;;4.00;2.00;;;;;22.68;52.18;100431.44;5113994;27;45438;-65
2023/07/27 08:46:41;;;;;;;;;2.33;2.33;;;;;22.73;52.06;100424.91;5101117;27;46382;-65
2023/07/27 08:49:12;;;;;;;;;2.00;2.00;;;;;22.81;51.86;100444.63;5109720;27;45412;-64
2023/07/27 08:51:39;;;;;;;;;2.00;2.00;;;;;22.80;51.70;100433.78;5096104;27;46110;-65
2023/07/27 08:54:05;;;;;;;;;3.00;3.00;;;;;22.70;51.74;100419.53;5091060;27;45445;-65
2023/07/27 08:56:30;;;;;;;;;2.67;2.67;;;;;22.71;51.80;100426.78;5095587;27;45427;-64
2023/07/27 08:58:56;;;;;;;;;3.33;2.67;;;;;22.68;51.95;100418.69;5097953;27;45365;-65
2023/07/27 09:01:23;;;;;;;;;4.00;3.00;;;;;22.72;51.96;100422.22;5098910;27;45802;-69
2023/07/27 09:03:48;;;;;;;;;3.00;2.00;;;;;22.78;51.70;100424.78;5094600;27;45566;-65
2023/07/27 09:06:13;;;;;;;;;3.33;1.33;;;;;22.79;51.58;100415.69;5095352;27;45488;-66
2023/07/27 09:08:39;;;;;;;;;2.00;2.00;;;;;22.83;51.04;100425.53;5103101;27;45474;-66
2023/07/27 09:11:07;;;;;;;;;2.00;2.00;;;;;22.75;51.42;100413.97;5095759;27;45399;-66
2023/07/27 09:13:33;;;;;;;;;2.00;2.00;;;;;22.79;51.24;100416.56;5095790;27;45374;-65
2023/07/27 09:16:01;;;;;;;;;1.00;1.00;;;;;22.91;51.42;100445.25;5100933;27;46203;-65
2023/07/27 09:18:32;;;;;;;;;2.00;2.00;;;;;22.95;51.47;100438.78;5100261;27;45265;-65
2023/07/27 09:20:58;;;;;;;;;4.33;3.33;;;;;22.89;51.35;100424.47;5081320;27;45554;-66
2023/07/27 09:23:23;;;;;;;;;2.33;2.00;;;;;22.97;51.17;100438.75;5100584;27;45766;-67
2023/07/27 09:25:53;;;;;;;;;2.00;2.00;;;;;22.87;51.13;100426.31;5095813;27;46414;-67
2023/07/27 09:28:26;;;;;;;;;4.00;2.00;;;;;22.93;51.30;100442.50;5112375;27;45450;-66
2023/07/27 09:30:58;;;;;;;;;1.33;1.33;;;;;22.77;51.34;100404.81;5097957;27;45521;-65
2023/07/27 09:33:23;;;;;;;;;2.00;2.00;;;;;22.90;51.01;100427.16;5101652;27;45932;-65
2023/07/27 09:35:52;;;;;;;;;1.00;1.00;;;;;23.01;50.75;100440.44;5095082;27;45428;-65
2023/07/27 09:38:27;;;;;;;;;4.00;1.00;;;;;23.09;50.99;100445.69;5095169;27;45329;-65
2023/07/27 09:40:53;;;;;;;;;4.00;2.33;;;;;23.14;50.50;100444.59;5098517;27;45464;-68
2023/07/27 09:43:22;;;;;;;;;7.33;5.00;;;;;23.14;50.53;100446.44;5103309;27;45351;-65
2023/07/27 09:45:48;;;;;;;;;3.33;2.00;;;;;23.15;50.20;100430.03;5095469;27;46650;-65
2023/07/27 09:48:14;;;;;;;;;5.00;3.00;;;;;23.17;50.28;100432.72;5094211;27;45375;-65
2023/07/27 09:50:41;;;;;;;;;3.00;1.67;;;;;23.18;50.01;100427.22;5104633;27;45463;-66
2023/07/27 09:53:09;;;;;;;;;3.00;3.00;;;;;23.27;49.89;100422.44;5095010;27;45419;-65
2023/07/27 09:55:35;;;;;;;;;2.00;2.00;;;;;23.39;49.63;100429.31;5094181;27;47146;-65
2023/07/27 09:58:00;;;;;;;;;7.00;5.00;;;;;23.50;49.95;100429.88;5093950;27;45475;-64
2023/07/27 10:00:26;;;;;;;;;4.00;4.00;;;;;23.32;49.48;100368.66;5098802;27;45701;-65
2023/07/27 10:02:51;;;;;;;;;3.00;3.00;;;;;23.68;48.77;100422.94;5112314;27;45334;-68
2023/07/27 10:05:17;;;;;;;;;4.00;2.67;;;;;23.66;48.98;100416.63;5100209;27;45644;-68
2023/07/27 10:07:43;;;;;;;;;2.00;2.00;;;;;23.67;48.92;100418.41;5111097;27;45592;-65
2023/07/27 10:10:35;;;;;;;;;3.00;2.33;;;;;23.80;48.67;100443.44;5094444;27;45542;-62
2023/07/27 10:13:11;;;;;;;;;1.00;1.00;;;;;23.82;48.93;100428.84;5094982;27;45607;-63
2023/07/27 10:15:43;;;;;;;;;2.00;2.00;;;;;23.81;48.51;100428.84;5094518;27;46398;-64
2023/07/27 10:18:14;;;;;;;;;2.00;2.00;;;;;23.61;48.56;100381.34;5099774;27;45691;-63
2023/07/27 10:20:39;;;;;;;;;3.00;3.00;;;;;23.87;48.73;100428.69;5082113;27;45593;-64
2023/07/27 10:23:09;;;;;;;;;2.33;2.33;;;;;23.85;48.38;100426.00;5096712;27;45631;-65
2023/07/27 10:26:05;;;;;;;;;5.00;5.00;;;;;23.77;48.66;100424.44;5094520;27;46156;-63
2023/07/27 10:28:30;;;;;;;;;1.67;1.67;;;;;23.71;48.68;100436.47;5076792;27;45480;-64
2023/07/27 10:31:13;;;;;;;;;7.33;5.00;;;;;23.73;48.82;100423.66;5094934;27;45322;-64
2023/07/27 10:33:45;;;;;;;;;3.67;3.67;;;;;23.74;48.52;100429.06;5094694;27;45428;-64
2023/07/27 10:36:11;;;;;;;;;5.33;2.33;;;;;23.61;48.64;100407.69;5097493;27;45582;-66
2023/07/27 10:38:37;;;;;;;;;3.00;3.00;;;;;23.75;48.72;100427.22;5093681;27;45332;-64
2023/07/27 10:41:12;;;;;;;;;4.00;3.67;;;;;23.67;48.42;100404.78;5098651;27;45458;-64
2023/07/27 10:43:38;;;;;;;;;2.67;2.67;;;;;23.84;48.38;100434.25;5093163;27;45483;-65
2023/07/27 10:46:20;;;;;;;;;4.00;4.00;;;;;23.80;48.34;100421.63;5095934;27;45782;-63
2023/07/27 10:49:09;;;;;;;;;5.67;4.00;;;;;23.88;48.49;100436.81;5094077;27;45539;-63
2023/07/27 10:51:35;;;;;;;;;3.67;3.67;;;;;23.89;48.70;100430.44;5094154;27;45456;-62
2023/07/27 10:54:01;;;;;;;;;9.67;3.67;;;;;23.88;48.11;100419.56;5079505;27;45339;-63
2023/07/27 10:56:27;;;;;;;;;3.67;3.67;;;;;23.85;48.19;100420.53;5093547;27;45495;-67
2023/07/27 10:59:00;;;;;;;;;6.33;5.00;;;;;23.90;48.77;100429.47;5093368;27;45535;-66
2023/07/27 11:01:26;;;;;;;;;3.00;3.00;;;;;23.94;48.51;100430.28;5093254;27;45463;-64
2023/07/27 11:03:55;;;;;;;;;3.00;3.00;;;;;23.95;47.93;100437.50;5097553;27;45538;-64
2023/07/27 11:06:20;;;;;;;;;5.33;3.67;;;;;23.91;48.45;100433.09;5093690;27;45393;-64
2023/07/27 11:08:45;;;;;;;;;7.33;4.33;;;;;23.85;48.57;100433.31;5093540;27;45463;-64
2023/07/27 11:11:19;;;;;;;;;7.00;5.67;;;;;23.72;48.97;100417.31;5101338;27;45526;-64
2023/07/27 11:13:45;;;;;;;;;4.33;3.00;;;;;23.73;50.11;100435.47;5097672;27;45379;-63
2023/07/27 11:16:13;;;;;;;;;4.00;4.00;;;;;23.64;51.67;100419.41;5100039;27;45467;-64
2023/07/27 11:18:38;;;;;;;;;3.33;3.00;;;;;23.62;52.32;100434.03;5097175;27;45403;-64
2023/07/27 11:21:04;;;;;;;;;4.00;4.00;;;;;23.55;53.20;100425.16;5100765;27;45462;-62
2023/07/27 11:23:30;;;;;;;;;5.67;4.67;;;;;23.36;54.25;100406.69;5097418;27;45455;-64